createdAt,value
2023-04-12T00:00:44.807Z,94040.03
2023-04-12T00:03:51.032Z,94035.03
2023-04-12T00:06:54.507Z,94039.38
2023-04-12T00:09:56.895Z,94035.22
2023-04-12T00:12:58.753Z,94037.66
2023-04-12T00:16:00.947Z,94047.81
2023-04-12T00:19:03.679Z,94042.31
2023-04-12T00:22:06.245Z,94057.75
2023-04-12T00:25:09.516Z,94045.31
2023-04-12T00:28:11.642Z,94059.16
2023-04-12T00:31:13.825Z,94066.50
2023-04-12T00:34:16.045Z,94064.22
2023-04-12T00:37:18.004Z,94075.44
2023-04-12T00:40:21.007Z,94084.94
2023-04-12T00:43:23.880Z,94077.41
2023-04-12T00:46:25.755Z,94057.47
2023-04-12T00:49:31.861Z,94075.72
2023-04-12T00:52:36.514Z,94078.91
2023-04-12T00:55:38.385Z,94072.91
2023-04-12T00:58:40.206Z,94068.03
2023-04-12T01:01:42.252Z,94058.56
2023-04-12T01:04:45.911Z,94066.09
2023-04-12T01:08:10.749Z,94082.97
2023-04-12T01:11:20.764Z,94076.41
2023-04-12T01:14:46.633Z,94065.47
2023-04-12T01:18:05.791Z,94079.03
2023-04-12T01:21:16.332Z,94070.88
2023-04-12T01:24:36.923Z,94057.41
2023-04-12T01:27:53.147Z,94056.78
2023-04-12T01:30:56.198Z,94056.78
2023-04-12T01:33:59.811Z,94052.53
2023-04-12T01:37:03.625Z,94037.97
2023-04-12T01:40:07.877Z,94038.94
2023-04-12T01:43:13.192Z,94039.91
2023-04-12T01:46:18.895Z,94050.06
2023-04-12T01:49:24.613Z,94045.97
2023-04-12T01:52:31.465Z,94051.53
2023-04-12T01:55:37.330Z,94040.22
2023-04-12T01:58:42.384Z,94037.09
2023-04-12T02:01:47.103Z,94032.69
2023-04-12T02:04:49.187Z,94034.81
2023-04-12T02:07:51.579Z,94028.59
2023-04-12T02:10:54.943Z,94028.91
2023-04-12T02:13:57.499Z,94028.44
2023-04-12T02:17:02.423Z,94024.66
2023-04-12T02:20:10.015Z,94021.88
2023-04-12T02:23:12.834Z,94032.22
2023-04-12T02:26:14.687Z,94015.34
2023-04-12T02:29:16.634Z,94011.72
2023-04-12T02:32:18.529Z,94029.75
2023-04-12T02:35:20.543Z,94034.97
2023-04-12T02:38:23.344Z,94027.13
2023-04-12T02:41:25.623Z,94026.66
2023-04-12T02:44:31.244Z,94037.28
2023-04-12T02:47:33.208Z,94028.44
2023-04-12T02:50:36.908Z,94034.84
2023-04-12T02:53:38.966Z,94033.19
2023-04-12T02:56:40.786Z,94040.06
2023-04-12T02:59:43.083Z,94041.38
2023-04-12T03:02:45.254Z,94042.53
2023-04-12T03:05:48.067Z,94039.25
2023-04-12T03:08:50.526Z,94037.97
2023-04-12T03:11:52.543Z,94044.03
2023-04-12T03:14:54.719Z,94038.94
2023-04-12T03:17:56.580Z,94041.22
2023-04-12T03:20:58.575Z,94042.88
2023-04-12T03:24:00.905Z,94031.38
2023-04-12T03:27:04.288Z,94033.38
2023-04-12T03:30:07.068Z,94031.88
2023-04-12T03:33:09.141Z,94042.22
2023-04-12T03:36:11.353Z,94038.13
2023-04-12T03:39:13.222Z,94042.53
2023-04-12T03:42:29.350Z,94034.69
2023-04-12T03:45:34.024Z,94035.00
2023-04-12T03:48:36.330Z,94040.25
2023-04-12T03:51:42.891Z,94041.38
2023-04-12T03:54:45.041Z,94041.56
2023-04-12T03:57:46.962Z,94032.72
2023-04-12T04:00:49.322Z,94027.50
2023-04-12T04:03:51.393Z,94044.00
2023-04-12T04:06:53.782Z,94033.06
2023-04-12T04:09:56.142Z,94028.78
2023-04-12T04:12:58.119Z,94047.78
2023-04-12T04:16:04.584Z,94043.00
2023-04-12T04:19:06.442Z,94045.97
2023-04-12T04:22:10.119Z,94044.00
2023-04-12T04:25:14.334Z,94053.50
2023-04-12T04:28:17.070Z,94051.06
2023-04-12T04:31:19.175Z,94060.22
2023-04-12T04:34:22.370Z,94055.28
2023-04-12T04:37:25.108Z,94049.72
2023-04-12T04:40:27.253Z,94068.41
2023-04-12T04:43:34.198Z,94068.91
2023-04-12T04:46:39.747Z,94062.66
2023-04-12T04:49:41.683Z,94064.31
2023-04-12T04:52:44.694Z,94066.09
2023-04-12T04:55:47.796Z,94064.28
2023-04-12T04:58:50.639Z,94070.16
2023-04-12T05:01:52.530Z,94064.06
2023-04-12T05:05:00.028Z,94070.47
2023-04-12T05:08:02.201Z,94083.06
2023-04-12T05:11:04.533Z,94082.69
2023-04-12T05:14:06.605Z,94100.41
2023-04-12T05:17:08.428Z,94094.81
2023-04-12T05:20:13.655Z,94089.72
2023-04-12T05:23:17.433Z,94089.09
2023-04-12T05:26:19.360Z,94082.69
2023-04-12T05:29:22.171Z,94082.34
2023-04-12T05:32:27.087Z,94085.75
2023-04-12T05:35:29.041Z,94090.03
2023-04-12T05:38:30.953Z,94097.88
2023-04-12T05:41:32.849Z,94095.06
2023-04-12T05:44:36.864Z,94094.03
2023-04-12T05:47:38.695Z,94100.25
2023-04-12T05:50:40.676Z,94098.09
2023-04-12T05:53:42.667Z,94088.75
2023-04-12T05:56:44.497Z,94098.28
2023-04-12T05:59:59.333Z,94101.03
2023-04-12T06:03:01.971Z,94098.59
2023-04-12T06:06:04.498Z,94096.94
2023-04-12T06:09:06.389Z,94092.28
2023-04-12T06:12:08.216Z,94091.25
2023-04-12T06:15:10.706Z,94090.56
2023-04-12T06:18:13.295Z,94083.34
2023-04-12T06:21:15.439Z,94088.72
2023-04-12T06:24:18.098Z,94070.63
2023-04-12T06:27:20.856Z,94081.84
2023-04-12T06:30:23.190Z,94086.56
2023-04-12T06:33:26.191Z,94076.63
2023-04-12T06:36:28.055Z,94080.63
2023-04-12T06:39:30.360Z,94078.34
2023-04-12T06:42:32.197Z,94088.81
2023-04-12T06:45:34.091Z,94090.97
2023-04-12T06:48:36.200Z,94081.16
2023-04-12T06:51:37.998Z,94083.28
2023-04-12T06:54:40.088Z,94073.16
2023-04-12T06:57:43.206Z,94083.28
2023-04-12T07:00:45.168Z,94092.63
2023-04-12T07:03:47.236Z,94086.28
2023-04-12T07:06:49.347Z,94084.38
2023-04-12T07:09:52.409Z,94085.84
2023-04-12T07:12:54.263Z,94085.00
2023-04-12T07:15:58.164Z,94095.53
2023-04-12T07:19:00.882Z,94089.38
2023-04-12T07:22:02.947Z,94099.72
2023-04-12T07:25:10.002Z,94096.00
2023-04-12T07:28:11.996Z,94101.59
2023-04-12T07:31:13.968Z,94108.59
2023-04-12T07:34:15.975Z,94108.19
2023-04-12T07:37:18.040Z,94100.94
2023-04-12T07:40:20.703Z,94113.06
2023-04-12T07:43:23.277Z,94104.63
2023-04-12T07:46:25.482Z,94119.91
2023-04-12T07:49:27.902Z,94116.16
2023-04-12T07:52:29.748Z,94127.34
2023-04-12T07:55:31.651Z,94124.03
2023-04-12T07:58:34.791Z,94125.03
2023-04-12T08:01:37.024Z,94122.41
2023-04-12T08:04:38.956Z,94123.00
2023-04-12T08:07:41.070Z,94125.03
2023-04-12T08:10:43.639Z,94129.09
2023-04-12T08:13:46.501Z,94126.16
2023-04-12T08:16:48.785Z,94129.22
2023-04-12T08:19:50.642Z,94124.25
2023-04-12T08:22:52.830Z,94130.09
2023-04-12T08:26:03.612Z,94127.63
2023-04-12T08:29:06.138Z,94130.28
2023-04-12T08:32:12.554Z,94130.75
2023-04-12T08:35:16.085Z,94134.56
2023-04-12T08:38:18.659Z,94122.78
2023-04-12T08:41:21.560Z,94116.88
2023-04-12T08:44:35.953Z,94128.41
2023-04-12T08:47:40.569Z,94137.09
2023-04-12T08:50:44.580Z,94134.22
2023-04-12T08:53:47.386Z,94137.69
2023-04-12T08:56:49.517Z,94134.28
2023-04-12T08:59:53.673Z,94135.22
2023-04-12T09:02:56.224Z,94143.03
2023-04-12T09:06:05.046Z,94134.69
2023-04-12T09:09:08.253Z,94147.22
2023-04-12T09:12:11.452Z,94138.41
2023-04-12T09:15:15.708Z,94139.84
2023-04-12T09:18:18.973Z,94127.72
2023-04-12T09:21:20.997Z,94117.66
2023-04-12T09:24:26.113Z,94114.84
2023-04-12T09:27:29.735Z,94112.63
2023-04-12T09:30:42.294Z,94116.84
2023-04-12T09:33:44.363Z,94109.81
2023-04-12T09:36:46.195Z,94112.56
2023-04-12T09:40:02.962Z,94121.13
2023-04-12T09:43:07.177Z,94117.41
2023-04-12T09:46:14.011Z,94118.94
2023-04-12T09:49:15.939Z,94118.84
2023-04-12T09:52:18.599Z,94115.63
2023-04-12T09:55:23.093Z,94123.81
2023-04-12T09:58:26.694Z,94113.84
2023-04-12T10:01:39.405Z,94120.75
2023-04-12T10:04:42.332Z,94127.72
2023-04-12T10:07:45.281Z,94120.34
2023-04-12T10:10:47.615Z,94118.72
2023-04-12T10:13:50.464Z,94125.03
2023-04-12T10:16:56.101Z,94121.97
2023-04-12T10:19:59.286Z,94112.78
2023-04-12T10:23:01.365Z,94110.59
2023-04-12T10:26:05.239Z,94124.66
2023-04-12T10:29:27.175Z,94126.25
2023-04-12T10:32:29.124Z,94122.78
2023-04-12T10:35:51.717Z,94110.59
2023-04-12T10:39:09.996Z,94120.56
2023-04-12T10:42:27.973Z,94122.72
2023-04-12T10:45:39.219Z,94122.50
2023-04-12T10:48:52.501Z,94124.78
2023-04-12T10:52:14.786Z,94125.63
2023-04-12T10:55:30.133Z,94117.59
2023-04-12T10:59:07.969Z,94118.91
2023-04-12T11:02:11.890Z,94124.00
2023-04-12T11:05:14.798Z,94115.66
2023-04-12T11:08:19.096Z,94122.22
2023-04-12T11:11:22.882Z,94116.09
2023-04-12T11:14:34.050Z,94121.78
2023-04-12T11:17:37.777Z,94122.19
2023-04-12T11:20:41.026Z,94115.88
2023-04-12T11:23:43.888Z,94110.75
2023-04-12T11:26:46.859Z,94113.78
2023-04-12T11:29:50.970Z,94113.75
2023-04-12T11:32:53.021Z,94107.03
2023-04-12T11:35:55.294Z,94112.97
2023-04-12T11:38:57.438Z,94111.19
2023-04-12T11:42:00.156Z,94115.66
2023-04-12T11:45:09.255Z,94116.28
2023-04-12T11:48:45.376Z,94117.47
2023-04-12T11:51:49.613Z,94116.28
2023-04-12T11:54:57.625Z,94123.91
2023-04-12T11:57:59.988Z,94120.56
2023-04-12T12:01:04.072Z,94111.19
2023-04-12T12:04:06.844Z,94112.22
2023-04-12T12:07:09.480Z,94114.22
2023-04-12T12:10:13.363Z,94105.09
2023-04-12T12:13:21.228Z,94104.06
2023-04-12T12:16:28.954Z,94101.41
2023-04-12T12:19:37.931Z,94097.34
2023-04-12T12:22:46.691Z,94099.34
2023-04-12T12:25:48.799Z,94095.66
2023-04-12T12:28:51.743Z,94092.44
2023-04-12T12:31:54.073Z,94092.03
2023-04-12T12:34:59.511Z,94092.44
2023-04-12T12:38:01.526Z,94093.84
2023-04-12T12:41:20.984Z,94094.88
2023-04-12T12:44:24.049Z,94093.41
2023-04-12T12:47:26.338Z,94084.44
2023-04-12T12:50:30.516Z,94085.81
2023-04-12T12:53:32.403Z,94081.19
2023-04-12T12:56:35.885Z,94077.34
2023-04-12T12:59:37.753Z,94081.78
2023-04-12T13:02:40.335Z,94075.06
2023-04-12T13:05:42.398Z,94072.19
2023-04-12T13:08:44.405Z,94069.94
2023-04-12T13:11:46.400Z,94073.41
2023-04-12T13:14:48.707Z,94073.28
2023-04-12T13:17:54.486Z,94073.69
2023-04-12T13:20:56.737Z,94068.00
2023-04-12T13:23:58.714Z,94068.81
2023-04-12T13:27:00.884Z,94057.81
2023-04-12T13:30:02.910Z,94054.56
2023-04-12T13:33:04.845Z,94059.84
2023-04-12T13:36:07.298Z,94065.34
2023-04-12T13:39:09.270Z,94050.69
2023-04-12T13:42:11.609Z,94053.94
2023-04-12T13:45:13.577Z,94061.06
2023-04-12T13:48:15.786Z,94058.22
2023-04-12T13:51:18.174Z,94051.44
2023-04-12T13:54:20.163Z,94044.91
2023-04-12T13:57:22.705Z,94045.69
2023-04-12T14:00:25.113Z,94036.34
2023-04-12T14:03:27.034Z,94051.09
2023-04-12T14:06:30.612Z,94047.38
2023-04-12T14:09:34.903Z,94061.25
2023-04-12T14:12:37.111Z,94056.78
2023-04-12T14:15:39.109Z,94050.69
2023-04-12T14:18:41.480Z,94046.19
2023-04-12T14:21:43.407Z,94048.47
2023-04-12T14:24:45.699Z,94051.88
2023-04-12T14:27:47.539Z,94063.91
2023-04-12T14:30:51.389Z,94057.41
2023-04-12T14:33:53.807Z,94054.75
2023-04-12T14:36:56.410Z,94059.44
2023-04-12T14:39:58.800Z,94062.50
2023-04-12T14:43:00.959Z,94048.25
2023-04-12T14:46:02.802Z,94054.97
2023-04-12T14:49:05.299Z,94053.13
2023-04-12T14:52:08.089Z,94050.47
2023-04-12T14:55:10.807Z,94056.38
2023-04-12T14:58:13.508Z,94056.59
2023-04-12T15:01:18.285Z,94062.28
2023-04-12T15:04:20.558Z,94065.16
2023-04-12T15:07:22.606Z,94062.28
2023-04-12T15:10:26.236Z,94059.03
2023-04-12T15:13:33.068Z,94062.06
2023-04-12T15:16:35.616Z,94058.63
2023-04-12T15:19:40.087Z,94055.56
2023-04-12T15:22:42.187Z,94059.44
2023-04-12T15:25:43.990Z,94055.16
2023-04-12T15:28:46.266Z,94064.31
2023-04-12T15:31:48.355Z,94064.31
2023-04-12T15:34:51.165Z,94068.78
2023-04-12T15:37:54.398Z,94069.38
2023-04-12T15:40:59.984Z,94080.53
2023-04-12T15:44:02.584Z,94070.16
2023-04-12T15:47:11.033Z,94068.09
2023-04-12T15:50:14.242Z,94068.09
2023-04-12T15:53:21.550Z,94069.50
2023-04-12T15:56:26.484Z,94060.88
2023-04-12T15:59:29.945Z,94068.03
2023-04-12T16:02:33.640Z,94064.38
2023-04-12T16:05:36.275Z,94063.97
2023-04-12T16:08:38.374Z,94062.53
2023-04-12T16:11:40.956Z,94064.16
2023-04-12T16:14:44.193Z,94061.72
2023-04-12T16:17:47.512Z,94069.09
2023-04-12T16:20:49.812Z,94060.38
2023-04-12T16:23:53.140Z,94054.66
2023-04-12T16:26:56.054Z,94055.44
2023-04-12T16:29:59.454Z,94046.47
2023-04-12T16:33:02.031Z,94045.91
2023-04-12T16:36:08.467Z,94048.47
2023-04-12T16:39:11.561Z,94048.44
2023-04-12T16:42:14.495Z,94047.38
2023-04-12T16:45:16.608Z,94036.34
2023-04-12T16:48:21.439Z,94044.47
2023-04-12T16:51:23.655Z,94051.34
2023-04-12T16:54:26.722Z,94049.63
2023-04-12T16:57:29.782Z,94048.78
2023-04-12T17:00:33.318Z,94043.84
2023-04-12T17:03:35.834Z,94051.06
2023-04-12T17:06:39.641Z,94054.81
2023-04-12T17:09:45.714Z,94046.31
2023-04-12T17:12:58.542Z,94037.91
2023-04-12T17:16:00.868Z,94040.81
2023-04-12T17:19:03.441Z,94040.06
2023-04-12T17:22:05.573Z,94042.28
2023-04-12T17:25:10.269Z,94037.00
2023-04-12T17:28:13.049Z,94038.13
2023-04-12T17:31:15.539Z,94045.00
2023-04-12T17:34:17.826Z,94043.84
2023-04-12T17:37:20.091Z,94047.75
2023-04-12T17:40:22.476Z,94046.66
2023-04-12T17:43:25.068Z,94050.03
2023-04-12T17:46:27.414Z,94054.31
2023-04-12T17:49:29.614Z,94052.44
2023-04-12T17:52:32.104Z,94058.69
2023-04-12T17:55:34.790Z,94055.50
2023-04-12T17:58:37.156Z,94063.69
2023-04-12T18:01:39.511Z,94061.88
2023-04-12T18:04:42.131Z,94066.16
2023-04-12T18:07:44.816Z,94073.28
2023-04-12T18:10:47.440Z,94080.50
2023-04-12T18:13:49.629Z,94086.44
2023-04-12T18:16:52.001Z,94085.75
2023-04-12T18:19:56.921Z,94095.47
2023-04-12T18:23:00.237Z,94089.09
2023-04-12T18:26:05.895Z,94098.22
2023-04-12T18:29:08.383Z,94088.34
2023-04-12T18:32:10.819Z,94085.47
2023-04-12T18:35:13.544Z,94092.25
2023-04-12T18:38:17.457Z,94098.38
2023-04-12T18:41:19.769Z,94089.06
2023-04-12T18:44:22.248Z,94089.09
2023-04-12T18:47:26.646Z,94084.34
2023-04-12T18:50:29.229Z,94092.94
2023-04-12T18:53:31.140Z,94090.34
2023-04-12T18:56:33.726Z,94080.69
2023-04-12T18:59:36.033Z,94086.94
2023-04-12T19:02:38.599Z,94086.63
2023-04-12T19:05:41.061Z,94085.69
2023-04-12T19:08:43.252Z,94085.56
2023-04-12T19:11:45.850Z,94084.09
2023-04-12T19:14:48.637Z,94087.03
2023-04-12T19:17:53.247Z,94083.94
2023-04-12T19:20:57.291Z,94085.41
2023-04-12T19:24:02.460Z,94087.41
2023-04-12T19:27:05.042Z,94089.69
2023-04-12T19:30:11.487Z,94090.03
2023-04-12T19:33:13.639Z,94087.06
2023-04-12T19:36:16.010Z,94088.53
2023-04-12T19:39:20.007Z,94087.22
2023-04-12T19:42:22.587Z,94088.72
2023-04-12T19:45:26.261Z,94074.47
2023-04-12T19:48:29.167Z,94079.88
2023-04-12T19:51:31.649Z,94075.63
2023-04-12T19:54:34.271Z,94085.28
2023-04-12T19:57:38.186Z,94080.84
2023-04-12T20:00:41.955Z,94079.56
2023-04-12T20:03:44.228Z,94082.31
2023-04-12T20:06:47.183Z,94091.84
2023-04-12T20:09:49.464Z,94081.84
2023-04-12T20:12:51.968Z,94085.59
2023-04-12T20:15:54.551Z,94074.63
2023-04-12T20:18:59.152Z,94081.66
2023-04-12T20:22:04.230Z,94088.72
2023-04-12T20:25:08.460Z,94086.09
2023-04-12T20:28:10.614Z,94082.16
2023-04-12T20:31:15.968Z,94076.59
2023-04-12T20:34:19.347Z,94092.59
2023-04-12T20:37:23.322Z,94091.13
2023-04-12T20:40:30.297Z,94087.84
2023-04-12T20:43:46.632Z,94085.69
2023-04-12T20:46:49.077Z,94082.94
2023-04-12T20:49:52.324Z,94079.13
2023-04-12T20:52:56.288Z,94085.06
2023-04-12T20:55:58.410Z,94081.47
2023-04-12T20:59:00.705Z,94093.09
2023-04-12T21:02:02.914Z,94082.81
2023-04-12T21:05:06.558Z,94073.28
2023-04-12T21:08:08.587Z,94075.13
2023-04-12T21:11:11.737Z,94070.88
2023-04-12T21:14:14.376Z,94075.63
2023-04-12T21:17:16.947Z,94073.97
2023-04-12T21:20:19.047Z,94074.28
2023-04-12T21:23:23.870Z,94075.94
2023-04-12T21:26:29.589Z,94078.84
2023-04-12T21:29:43.972Z,94067.41
2023-04-12T21:32:53.700Z,94075.56
2023-04-12T21:35:58.115Z,94073.28
2023-04-12T21:39:05.663Z,94061.19
2023-04-12T21:42:17.304Z,94072.44
2023-04-12T21:45:28.685Z,94062.97
2023-04-12T21:48:31.774Z,94061.84
2023-04-12T21:51:34.708Z,94060.53
2023-04-12T21:54:37.451Z,94069.38
2023-04-12T21:57:40.545Z,94062.19
2023-04-12T22:00:47.833Z,94060.53
2023-04-12T22:04:01.194Z,94060.03
2023-04-12T22:07:04.407Z,94050.06
2023-04-12T22:10:12.054Z,94045.78
2023-04-12T22:13:16.155Z,94034.00
2023-04-12T22:16:17.973Z,94040.53
2023-04-12T22:19:19.849Z,94037.28
2023-04-12T22:22:23.451Z,94038.25
2023-04-12T22:25:25.780Z,94033.38
2023-04-12T22:28:27.935Z,94025.66
2023-04-12T22:31:30.152Z,94026.66
2023-04-12T22:34:32.561Z,94025.53
2023-04-12T22:37:35.182Z,94032.06
2023-04-12T22:40:38.261Z,94032.34
2023-04-12T22:43:43.337Z,94035.31
2023-04-12T22:46:48.484Z,94028.25
2023-04-12T22:49:50.917Z,94034.94
2023-04-12T22:52:54.454Z,94016.94
2023-04-12T22:55:57.256Z,94017.91
2023-04-12T22:58:59.631Z,94007.63
2023-04-12T23:02:01.859Z,94012.38
2023-04-12T23:05:04.563Z,94008.09
2023-04-12T23:08:06.668Z,94005.34
2023-04-12T23:11:08.599Z,94007.59
2023-04-12T23:14:10.591Z,94008.91
2023-04-12T23:17:12.586Z,94007.09
2023-04-12T23:20:14.963Z,94001.88
2023-04-12T23:23:17.073Z,93994.69
2023-04-12T23:26:19.911Z,93995.13
2023-04-12T23:29:25.691Z,93999.09
2023-04-12T23:32:27.665Z,93995.00
2023-04-12T23:35:29.654Z,93994.66
2023-04-12T23:38:33.782Z,93985.16
2023-04-12T23:41:36.188Z,93974.84
2023-04-12T23:44:38.089Z,93976.31
2023-04-12T23:47:40.119Z,93979.75
2023-04-12T23:50:45.818Z,93965.19
2023-04-12T23:53:47.676Z,93975.66
2023-04-12T23:56:49.478Z,93970.72
2023-04-12T23:59:51.870Z,93964.00
